sensor_id;sensor_type;location;lat;lon;timestamp;P1;durP1;ratioP1;P2;durP2;ratioP2
21270;SDS011;10795;50.796;3.860;2024-03-23T00:53:46;19.77;;;7.60;;
21270;SDS011;10795;50.796;3.860;2024-03-23T00:56:12;16.85;;;7.43;;
21270;SDS011;10795;50.796;3.860;2024-03-23T00:58:38;14.05;;;5.50;;
21270;SDS011;10795;50.796;3.860;2024-03-23T01:01:04;17.88;;;6.88;;
21270;SDS011;10795;50.796;3.860;2024-03-23T01:03:30;15.27;;;6.47;;
21270;SDS011;10795;50.796;3.860;2024-03-23T01:06:01;13.82;;;7.65;;
21270;SDS011;10795;50.796;3.860;2024-03-23T01:08:28;20.63;;;8.65;;
21270;SDS011;10795;50.796;3.860;2024-03-23T01:10:57;19.45;;;9.18;;
21270;SDS011;10795;50.796;3.860;2024-03-23T01:13:28;22.40;;;8.98;;
21270;SDS011;10795;50.796;3.860;2024-03-23T01:15:55;25.70;;;10.77;;
21270;SDS011;10795;50.796;3.860;2024-03-23T01:18:23;23.23;;;9.57;;
21270;SDS011;10795;50.796;3.860;2024-03-23T01:20:51;23.85;;;10.75;;
21270;SDS011;10795;50.796;3.860;2024-03-23T01:23:17;18.42;;;9.80;;
21270;SDS011;10795;50.796;3.860;2024-03-23T01:25:43;24.27;;;11.60;;
21270;SDS011;10795;50.796;3.860;2024-03-23T01:28:11;24.08;;;11.77;;
21270;SDS011;10795;50.796;3.860;2024-03-23T01:30:37;25.58;;;11.27;;
21270;SDS011;10795;50.796;3.860;2024-03-23T01:33:03;22.77;;;11.02;;
21270;SDS011;10795;50.796;3.860;2024-03-23T01:35:33;31.38;;;11.70;;
21270;SDS011;10795;50.796;3.860;2024-03-23T01:38:01;22.98;;;9.65;;
21270;SDS011;10795;50.796;3.860;2024-03-23T01:40:29;16.00;;;9.85;;
21270;SDS011;10795;50.796;3.860;2024-03-23T01:42:57;26.80;;;11.63;;
21270;SDS011;10795;50.796;3.860;2024-03-23T01:45:27;22.95;;;11.73;;
21270;SDS011;10795;50.796;3.860;2024-03-23T01:47:53;22.13;;;10.02;;
21270;SDS011;10795;50.796;3.860;2024-03-23T01:50:21;26.20;;;12.02;;
21270;SDS011;10795;50.796;3.860;2024-03-23T01:52:47;23.52;;;11.57;;
21270;SDS011;10795;50.796;3.860;2024-03-23T01:55:13;26.90;;;11.02;;
21270;SDS011;10795;50.796;3.860;2024-03-23T01:57:47;18.25;;;10.50;;
21270;SDS011;10795;50.796;3.860;2024-03-23T02:00:13;23.80;;;11.00;;
21270;SDS011;10795;50.796;3.860;2024-03-23T02:02:43;23.73;;;10.73;;
21270;SDS011;10795;50.796;3.860;2024-03-23T02:05:14;22.05;;;10.52;;
21270;SDS011;10795;50.796;3.860;2024-03-23T02:07:40;28.02;;;11.68;;
21270;SDS011;10795;50.796;3.860;2024-03-23T02:10:11;22.63;;;11.73;;
21270;SDS011;10795;50.796;3.860;2024-03-23T02:12:40;16.08;;;8.38;;
21270;SDS011;10795;50.796;3.860;2024-03-23T02:15:12;19.50;;;10.55;;
21270;SDS011;10795;50.796;3.860;2024-03-23T02:17:41;22.95;;;10.23;;
21270;SDS011;10795;50.796;3.860;2024-03-23T02:20:07;20.48;;;9.80;;
21270;SDS011;10795;50.796;3.860;2024-03-23T02:22:39;29.83;;;10.30;;
21270;SDS011;10795;50.796;3.860;2024-03-23T02:25:05;21.15;;;10.25;;
21270;SDS011;10795;50.796;3.860;2024-03-23T02:27:35;25.67;;;10.75;;
21270;SDS011;10795;50.796;3.860;2024-03-23T02:30:04;25.25;;;10.52;;
21270;SDS011;10795;50.796;3.860;2024-03-23T02:32:34;25.67;;;10.25;;
21270;SDS011;10795;50.796;3.860;2024-03-23T02:35:03;21.63;;;9.02;;
21270;SDS011;10795;50.796;3.860;2024-03-23T02:37:36;20.70;;;9.27;;
21270;SDS011;10795;50.796;3.860;2024-03-23T02:40:02;20.35;;;8.77;;
21270;SDS011;10795;50.796;3.860;2024-03-23T02:42:31;19.02;;;9.30;;
21270;SDS011;10795;50.796;3.860;2024-03-23T02:44:59;25.85;;;9.25;;
21270;SDS011;10795;50.796;3.860;2024-03-23T02:47:28;17.38;;;9.10;;
21270;SDS011;10795;50.796;3.860;2024-03-23T02:49:53;22.48;;;9.52;;
21270;SDS011;10795;50.796;3.860;2024-03-23T02:52:24;20.85;;;8.15;;
21270;SDS011;10795;50.796;3.860;2024-03-23T02:54:49;18.08;;;9.25;;
21270;SDS011;10795;50.796;3.860;2024-03-23T02:57:17;16.98;;;8.38;;
21270;SDS011;10795;50.796;3.860;2024-03-23T02:59:46;19.75;;;8.38;;
21270;SDS011;10795;50.796;3.860;2024-03-23T03:02:12;16.73;;;8.32;;
21270;SDS011;10795;50.796;3.860;2024-03-23T03:04:39;22.05;;;8.70;;
21270;SDS011;10795;50.796;3.860;2024-03-23T03:07:07;14.50;;;7.90;;
21270;SDS011;10795;50.796;3.860;2024-03-23T03:09:33;10.07;;;6.28;;
21270;SDS011;10795;50.796;3.860;2024-03-23T03:12:01;19.02;;;8.95;;
21270;SDS011;10795;50.796;3.860;2024-03-23T03:14:28;14.98;;;7.00;;
21270;SDS011;10795;50.796;3.860;2024-03-23T03:16:54;18.48;;;8.63;;
21270;SDS011;10795;50.796;3.860;2024-03-23T03:19:23;10.90;;;6.03;;
21270;SDS011;10795;50.796;3.860;2024-03-23T03:21:48;23.08;;;8.65;;
21270;SDS011;10795;50.796;3.860;2024-03-23T03:24:14;17.23;;;8.40;;
21270;SDS011;10795;50.796;3.860;2024-03-23T03:26:43;20.70;;;8.63;;
21270;SDS011;10795;50.796;3.860;2024-03-23T03:29:11;17.35;;;7.47;;
21270;SDS011;10795;50.796;3.860;2024-03-23T03:31:39;15.25;;;7.80;;
21270;SDS011;10795;50.796;3.860;2024-03-23T03:34:04;15.57;;;8.07;;
21270;SDS011;10795;50.796;3.860;2024-03-23T03:36:33;17.10;;;6.95;;
21270;SDS011;10795;50.796;3.860;2024-03-23T03:38:58;19.80;;;8.20;;
21270;SDS011;10795;50.796;3.860;2024-03-23T03:41:24;16.55;;;8.10;;
21270;SDS011;10795;50.796;3.860;2024-03-23T03:43:50;13.07;;;6.47;;
21270;SDS011;10795;50.796;3.860;2024-03-23T03:46:18;14.18;;;7.72;;
21270;SDS011;10795;50.796;3.860;2024-03-23T03:48:44;15.85;;;7.72;;
21270;SDS011;10795;50.796;3.860;2024-03-23T03:51:15;17.27;;;7.93;;
21270;SDS011;10795;50.796;3.860;2024-03-23T03:53:43;15.90;;;6.78;;
21270;SDS011;10795;50.796;3.860;2024-03-23T03:56:08;13.27;;;7.57;;
21270;SDS011;10795;50.796;3.860;2024-03-23T03:58:39;14.38;;;7.00;;
21270;SDS011;10795;50.796;3.860;2024-03-23T04:01:06;18.60;;;7.67;;
21270;SDS011;10795;50.796;3.860;2024-03-23T04:03:31;14.52;;;6.53;;
21270;SDS011;10795;50.796;3.860;2024-03-23T04:05:57;13.63;;;6.40;;
21270;SDS011;10795;50.796;3.860;2024-03-23T04:08:25;14.07;;;5.60;;
21270;SDS011;10795;50.796;3.860;2024-03-23T04:10:51;17.98;;;5.68;;
21270;SDS011;10795;50.796;3.860;2024-03-23T04:13:21;11.85;;;5.55;;
21270;SDS011;10795;50.796;3.860;2024-03-23T04:15:53;13.20;;;3.88;;
21270;SDS011;10795;50.796;3.860;2024-03-23T04:18:22;12.07;;;3.17;;
21270;SDS011;10795;50.796;3.860;2024-03-23T04:20:49;13.25;;;3.17;;
21270;SDS011;10795;50.796;3.860;2024-03-23T04:23:14;10.57;;;2.97;;
21270;SDS011;10795;50.796;3.860;2024-03-23T04:25:43;9.15;;;2.58;;
21270;SDS011;10795;50.796;3.860;2024-03-23T04:28:09;10.10;;;2.78;;
21270;SDS011;10795;50.796;3.860;2024-03-23T04:30:39;16.85;;;2.78;;
21270;SDS011;10795;50.796;3.860;2024-03-23T04:33:05;5.47;;;1.77;;
21270;SDS011;10795;50.796;3.860;2024-03-23T04:35:31;9.30;;;2.40;;
21270;SDS011;10795;50.796;3.860;2024-03-23T04:37:56;8.13;;;2.17;;
21270;SDS011;10795;50.796;3.860;2024-03-23T04:40:25;8.77;;;2.08;;
21270;SDS011;10795;50.796;3.860;2024-03-23T04:42:54;8.32;;;2.00;;
21270;SDS011;10795;50.796;3.860;2024-03-23T04:45:19;9.68;;;2.50;;
21270;SDS011;10795;50.796;3.860;2024-03-23T04:47:45;11.30;;;2.45;;
21270;SDS011;10795;50.796;3.860;2024-03-23T04:50:13;8.32;;;2.17;;
21270;SDS011;10795;50.796;3.860;2024-03-23T04:52:39;9.38;;;2.40;;
21270;SDS011;10795;50.796;3.860;2024-03-23T04:55:08;10.23;;;2.00;;
21270;SDS011;10795;50.796;3.860;2024-03-23T04:57:34;7.47;;;2.03;;
21270;SDS011;10795;50.796;3.860;2024-03-23T05:00:00;11.57;;;2.55;;
21270;SDS011;10795;50.796;3.860;2024-03-23T05:02:31;12.48;;;2.03;;
21270;SDS011;10795;50.796;3.860;2024-03-23T05:04:59;6.70;;;2.20;;
21270;SDS011;10795;50.796;3.860;2024-03-23T05:07:25;6.55;;;2.40;;
21270;SDS011;10795;50.796;3.860;2024-03-23T05:09:51;9.13;;;1.92;;
21270;SDS011;10795;50.796;3.860;2024-03-23T05:12:17;10.10;;;2.45;;
21270;SDS011;10795;50.796;3.860;2024-03-23T05:14:43;10.75;;;2.45;;
21270;SDS011;10795;50.796;3.860;2024-03-23T05:17:10;16.25;;;2.30;;
21270;SDS011;10795;50.796;3.860;2024-03-23T05:19:38;7.28;;;2.35;;
21270;SDS011;10795;50.796;3.860;2024-03-23T05:22:06;6.55;;;1.88;;
21270;SDS011;10795;50.796;3.860;2024-03-23T05:24:34;11.27;;;2.40;;
21270;SDS011;10795;50.796;3.860;2024-03-23T05:27:02;15.90;;;2.60;;
21270;SDS011;10795;50.796;3.860;2024-03-23T05:29:28;10.68;;;2.40;;
21270;SDS011;10795;50.796;3.860;2024-03-23T05:31:56;12.15;;;2.38;;
21270;SDS011;10795;50.796;3.860;2024-03-23T05:34:24;12.18;;;2.72;;
21270;SDS011;10795;50.796;3.860;2024-03-23T05:36:54;14.55;;;2.83;;
21270;SDS011;10795;50.796;3.860;2024-03-23T05:39:19;7.88;;;2.40;;
21270;SDS011;10795;50.796;3.860;2024-03-23T05:41:49;12.30;;;2.22;;
21270;SDS011;10795;50.796;3.860;2024-03-23T05:44:15;14.32;;;2.08;;
21270;SDS011;10795;50.796;3.860;2024-03-23T05:46:43;8.05;;;1.83;;
21270;SDS011;10795;50.796;3.860;2024-03-23T05:49:13;11.98;;;2.33;;
21270;SDS011;10795;50.796;3.860;2024-03-23T05:51:45;10.82;;;2.30;;
21270;SDS011;10795;50.796;3.860;2024-03-23T05:54:13;9.18;;;2.08;;
21270;SDS011;10795;50.796;3.860;2024-03-23T05:56:39;7.97;;;2.17;;
21270;SDS011;10795;50.796;3.860;2024-03-23T05:59:07;13.02;;;1.80;;
21270;SDS011;10795;50.796;3.860;2024-03-23T06:01:34;11.27;;;2.00;;
21270;SDS011;10795;50.796;3.860;2024-03-23T06:04:04;8.80;;;2.25;;
21270;SDS011;10795;50.796;3.860;2024-03-23T06:06:32;9.88;;;2.80;;
21270;SDS011;10795;50.796;3.860;2024-03-23T06:09:02;11.60;;;2.35;;
21270;SDS011;10795;50.796;3.860;2024-03-23T06:11:31;14.52;;;2.40;;
21270;SDS011;10795;50.796;3.860;2024-03-23T06:13:56;14.00;;;2.83;;
21270;SDS011;10795;50.796;3.860;2024-03-23T06:16:22;11.40;;;2.63;;
21270;SDS011;10795;50.796;3.860;2024-03-23T06:18:53;11.48;;;2.13;;
21270;SDS011;10795;50.796;3.860;2024-03-23T06:21:20;11.43;;;2.45;;
21270;SDS011;10795;50.796;3.860;2024-03-23T06:23:51;9.15;;;1.90;;
21270;SDS011;10795;50.796;3.860;2024-03-23T06:26:18;9.45;;;2.25;;
21270;SDS011;10795;50.796;3.860;2024-03-23T06:28:46;10.45;;;2.15;;
21270;SDS011;10795;50.796;3.860;2024-03-23T06:31:12;9.13;;;2.13;;
21270;SDS011;10795;50.796;3.860;2024-03-23T06:33:40;13.75;;;2.40;;
21270;SDS011;10795;50.796;3.860;2024-03-23T06:36:08;12.57;;;2.33;;
21270;SDS011;10795;50.796;3.860;2024-03-23T06:38:37;11.32;;;2.35;;
21270;SDS011;10795;50.796;3.860;2024-03-23T06:41:06;11.18;;;2.08;;
21270;SDS011;10795;50.796;3.860;2024-03-23T06:43:34;6.22;;;2.17;;
21270;SDS011;10795;50.796;3.860;2024-03-23T06:46:02;8.48;;;1.80;;
21270;SDS011;10795;50.796;3.860;2024-03-23T06:48:29;10.60;;;1.92;;
21270;SDS011;10795;50.796;3.860;2024-03-23T06:50:58;10.07;;;1.98;;
21270;SDS011;10795;50.796;3.860;2024-03-23T06:53:24;14.05;;;2.47;;
21270;SDS011;10795;50.796;3.860;2024-03-23T06:55:50;8.60;;;1.80;;
21270;SDS011;10795;50.796;3.860;2024-03-23T06:58:20;12.60;;;2.10;;
21270;SDS011;10795;50.796;3.860;2024-03-23T07:00:48;9.25;;;2.15;;
21270;SDS011;10795;50.796;3.860;2024-03-23T07:03:19;9.30;;;2.25;;
21270;SDS011;10795;50.796;3.860;2024-03-23T07:05:49;13.20;;;2.35;;
21270;SDS011;10795;50.796;3.860;2024-03-23T07:08:17;11.98;;;1.70;;
21270;SDS011;10795;50.796;3.860;2024-03-23T07:10:47;9.85;;;2.30;;
21270;SDS011;10795;50.796;3.860;2024-03-23T07:13:13;8.68;;;2.00;;
21270;SDS011;10795;50.796;3.860;2024-03-23T07:15:39;12.52;;;2.60;;
21270;SDS011;10795;50.796;3.860;2024-03-23T07:18:05;3.13;;;1.40;;
21270;SDS011;10795;50.796;3.860;2024-03-23T07:20:30;9.25;;;1.92;;
21270;SDS011;10795;50.796;3.860;2024-03-23T07:22:56;8.35;;;2.13;;
21270;SDS011;10795;50.796;3.860;2024-03-23T07:25:25;11.13;;;2.20;;
21270;SDS011;10795;50.796;3.860;2024-03-23T07:27:54;7.40;;;1.60;;
21270;SDS011;10795;50.796;3.860;2024-03-23T07:30:20;5.80;;;1.88;;
21270;SDS011;10795;50.796;3.860;2024-03-23T07:32:47;10.93;;;1.90;;
21270;SDS011;10795;50.796;3.860;2024-03-23T07:35:18;10.35;;;1.67;;
21270;SDS011;10795;50.796;3.860;2024-03-23T07:37:46;6.47;;;1.42;;
21270;SDS011;10795;50.796;3.860;2024-03-23T07:40:12;10.10;;;1.80;;
21270;SDS011;10795;50.796;3.860;2024-03-23T07:42:38;8.88;;;1.98;;
21270;SDS011;10795;50.796;3.860;2024-03-23T07:45:06;10.05;;;1.90;;
21270;SDS011;10795;50.796;3.860;2024-03-23T07:47:32;6.55;;;1.50;;
21270;SDS011;10795;50.796;3.860;2024-03-23T07:49:58;4.95;;;1.55;;
21270;SDS011;10795;50.796;3.860;2024-03-23T07:52:29;8.95;;;1.70;;
21270;SDS011;10795;50.796;3.860;2024-03-23T07:54:57;6.40;;;1.92;;
21270;SDS011;10795;50.796;3.860;2024-03-23T07:57:25;9.50;;;2.45;;
21270;SDS011;10795;50.796;3.860;2024-03-23T07:59:55;9.98;;;1.85;;
21270;SDS011;10795;50.796;3.860;2024-03-23T08:02:23;8.68;;;1.88;;
21270;SDS011;10795;50.796;3.860;2024-03-23T08:04:52;9.82;;;1.60;;
21270;SDS011;10795;50.796;3.860;2024-03-23T08:07:18;7.70;;;1.58;;
21270;SDS011;10795;50.796;3.860;2024-03-23T08:09:46;5.60;;;1.75;;
21270;SDS011;10795;50.796;3.860;2024-03-23T08:12:18;5.10;;;1.65;;
21270;SDS011;10795;50.796;3.860;2024-03-23T08:14:47;7.20;;;1.60;;
21270;SDS011;10795;50.796;3.860;2024-03-23T08:17:15;7.25;;;1.70;;
21270;SDS011;10795;50.796;3.860;2024-03-23T08:19:43;9.23;;;1.58;;
21270;SDS011;10795;50.796;3.860;2024-03-23T08:22:11;6.72;;;1.60;;
21270;SDS011;10795;50.796;3.860;2024-03-23T08:24:37;9.30;;;1.65;;
21270;SDS011;10795;50.796;3.860;2024-03-23T08:27:05;8.00;;;1.77;;
21270;SDS011;10795;50.796;3.860;2024-03-23T08:29:33;7.28;;;1.88;;
21270;SDS011;10795;50.796;3.860;2024-03-23T08:32:01;8.60;;;1.50;;
21270;SDS011;10795;50.796;3.860;2024-03-23T08:34:29;7.95;;;1.70;;
21270;SDS011;10795;50.796;3.860;2024-03-23T08:37:02;7.10;;;1.45;;
21270;SDS011;10795;50.796;3.860;2024-03-23T08:39:27;6.60;;;1.20;;
21270;SDS011;10795;50.796;3.860;2024-03-23T08:41:56;5.70;;;1.55;;
21270;SDS011;10795;50.796;3.860;2024-03-23T08:44:21;9.45;;;2.28;;
21270;SDS011;10795;50.796;3.860;2024-03-23T08:46:49;5.15;;;1.60;;
21270;SDS011;10795;50.796;3.860;2024-03-23T08:49:17;7.38;;;1.75;;
21270;SDS011;10795;50.796;3.860;2024-03-23T08:51:46;6.40;;;1.25;;
21270;SDS011;10795;50.796;3.860;2024-03-23T08:54:11;10.43;;;1.90;;
21270;SDS011;10795;50.796;3.860;2024-03-23T08:56:37;7.82;;;1.58;;
21270;SDS011;10795;50.796;3.860;2024-03-23T08:59:05;6.22;;;1.92;;
21270;SDS011;10795;50.796;3.860;2024-03-23T09:01:35;10.50;;;1.95;;
21270;SDS011;10795;50.796;3.860;2024-03-23T09:04:05;5.60;;;1.70;;
21270;SDS011;10795;50.796;3.860;2024-03-23T09:06:31;6.97;;;2.25;;
21270;SDS011;10795;50.796;3.860;2024-03-23T09:08:59;10.25;;;2.53;;
21270;SDS011;10795;50.796;3.860;2024-03-23T09:11:28;5.68;;;2.05;;
21270;SDS011;10795;50.796;3.860;2024-03-23T09:13:54;6.90;;;1.98;;
21270;SDS011;10795;50.796;3.860;2024-03-23T09:16:19;8.05;;;2.25;;
21270;SDS011;10795;50.796;3.860;2024-03-23T09:18:47;4.80;;;1.73;;
21270;SDS011;10795;50.796;3.860;2024-03-23T09:21:13;5.97;;;2.33;;
21270;SDS011;10795;50.796;3.860;2024-03-23T09:23:40;7.95;;;2.20;;
21270;SDS011;10795;50.796;3.860;2024-03-23T09:26:08;12.27;;;2.08;;
21270;SDS011;10795;50.796;3.860;2024-03-23T09:28:38;8.43;;;2.20;;
21270;SDS011;10795;50.796;3.860;2024-03-23T09:31:07;10.35;;;1.90;;
21270;SDS011;10795;50.796;3.860;2024-03-23T09:33:35;5.53;;;1.73;;
21270;SDS011;10795;50.796;3.860;2024-03-23T09:36:04;5.07;;;1.80;;
21270;SDS011;10795;50.796;3.860;2024-03-23T09:38:30;5.70;;;1.50;;
21270;SDS011;10795;50.796;3.860;2024-03-23T09:40:56;6.72;;;1.67;;
21270;SDS011;10795;50.796;3.860;2024-03-23T09:43:23;9.82;;;1.60;;
21270;SDS011;10795;50.796;3.860;2024-03-23T09:45:49;13.25;;;1.60;;
21270;SDS011;10795;50.796;3.860;2024-03-23T09:48:15;9.27;;;1.60;;
21270;SDS011;10795;50.796;3.860;2024-03-23T09:50:41;4.05;;;1.48;;
21270;SDS011;10795;50.796;3.860;2024-03-23T09:53:13;6.18;;;1.40;;
21270;SDS011;10795;50.796;3.860;2024-03-23T09:55:40;6.40;;;1.52;;
21270;SDS011;10795;50.796;3.860;2024-03-23T09:58:09;8.00;;;1.70;;
21270;SDS011;10795;50.796;3.860;2024-03-23T10:00:38;3.90;;;1.25;;
21270;SDS011;10795;50.796;3.860;2024-03-23T10:03:04;5.03;;;1.30;;
21270;SDS011;10795;50.796;3.860;2024-03-23T10:05:31;7.20;;;1.20;;
21270;SDS011;10795;50.796;3.860;2024-03-23T10:10:44;6.10;;;1.30;;
21270;SDS011;10795;50.796;3.860;2024-03-23T10:13:10;7.15;;;1.10;;
21270;SDS011;10795;50.796;3.860;2024-03-23T10:15:54;6.22;;;1.60;;
21270;SDS011;10795;50.796;3.860;2024-03-23T10:18:21;7.10;;;1.65;;
21270;SDS011;10795;50.796;3.860;2024-03-23T10:20:53;4.25;;;1.10;;
21270;SDS011;10795;50.796;3.860;2024-03-23T10:23:32;4.78;;;1.33;;
21270;SDS011;10795;50.796;3.860;2024-03-23T10:28:55;5.13;;;1.20;;
21270;SDS011;10795;50.796;3.860;2024-03-23T10:31:24;6.45;;;1.13;;
21270;SDS011;10795;50.796;3.860;2024-03-23T10:33:52;3.88;;;0.98;;
21270;SDS011;10795;50.796;3.860;2024-03-23T10:36:24;9.50;;;1.45;;
21270;SDS011;10795;50.796;3.860;2024-03-23T10:38:53;2.55;;;0.85;;
21270;SDS011;10795;50.796;3.860;2024-03-23T10:41:19;4.00;;;0.90;;
21270;SDS011;10795;50.796;3.860;2024-03-23T10:43:46;3.13;;;0.63;;
21270;SDS011;10795;50.796;3.860;2024-03-23T10:46:16;12.18;;;1.20;;
21270;SDS011;10795;50.796;3.860;2024-03-23T10:48:45;4.32;;;1.50;;
21270;SDS011;10795;50.796;3.860;2024-03-23T10:51:10;9.38;;;1.42;;
21270;SDS011;10795;50.796;3.860;2024-03-23T10:53:37;4.88;;;1.10;;
21270;SDS011;10795;50.796;3.860;2024-03-23T10:56:05;6.82;;;1.30;;
21270;SDS011;10795;50.796;3.860;2024-03-23T10:58:39;4.90;;;1.10;;
21270;SDS011;10795;50.796;3.860;2024-03-23T11:01:10;3.63;;;0.77;;
21270;SDS011;10795;50.796;3.860;2024-03-23T11:03:39;6.03;;;1.45;;
21270;SDS011;10795;50.796;3.860;2024-03-23T11:06:10;4.93;;;1.15;;
21270;SDS011;10795;50.796;3.860;2024-03-23T11:08:58;4.95;;;1.10;;
21270;SDS011;10795;50.796;3.860;2024-03-23T11:11:24;3.63;;;0.70;;
21270;SDS011;10795;50.796;3.860;2024-03-23T11:13:54;5.63;;;1.02;;
21270;SDS011;10795;50.796;3.860;2024-03-23T11:16:27;4.47;;;0.80;;
21270;SDS011;10795;50.796;3.860;2024-03-23T11:22:03;4.20;;;1.67;;
21270;SDS011;10795;50.796;3.860;2024-03-23T11:24:30;6.75;;;1.17;;
21270;SDS011;10795;50.796;3.860;2024-03-23T11:27:21;4.97;;;0.90;;
21270;SDS011;10795;50.796;3.860;2024-03-23T11:30:13;6.10;;;1.60;;
21270;SDS011;10795;50.796;3.860;2024-03-23T11:32:48;7.95;;;1.15;;
21270;SDS011;10795;50.796;3.860;2024-03-23T11:41:12;7.03;;;0.98;;
21270;SDS011;10795;50.796;3.860;2024-03-23T11:43:38;8.95;;;1.08;;
21270;SDS011;10795;50.796;3.860;2024-03-23T11:46:03;7.82;;;1.15;;
21270;SDS011;10795;50.796;3.860;2024-03-23T11:48:32;8.48;;;1.35;;
21270;SDS011;10795;50.796;3.860;2024-03-23T11:50:58;9.93;;;1.15;;
21270;SDS011;10795;50.796;3.860;2024-03-23T11:53:26;5.40;;;1.00;;
21270;SDS011;10795;50.796;3.860;2024-03-23T11:55:53;3.33;;;0.63;;
21270;SDS011;10795;50.796;3.860;2024-03-23T11:58:21;9.00;;;1.13;;
21270;SDS011;10795;50.796;3.860;2024-03-23T12:00:51;3.65;;;0.90;;
21270;SDS011;10795;50.796;3.860;2024-03-23T12:03:18;6.35;;;1.08;;
21270;SDS011;10795;50.796;3.860;2024-03-23T12:05:57;7.00;;;1.02;;
21270;SDS011;10795;50.796;3.860;2024-03-23T12:08:30;7.45;;;1.02;;
21270;SDS011;10795;50.796;3.860;2024-03-23T12:14:00;3.47;;;0.60;;
21270;SDS011;10795;50.796;3.860;2024-03-23T12:16:34;4.43;;;0.70;;
21270;SDS011;10795;50.796;3.860;2024-03-23T12:19:04;8.13;;;0.98;;
21270;SDS011;10795;50.796;3.860;2024-03-23T12:21:31;5.05;;;1.00;;
21270;SDS011;10795;50.796;3.860;2024-03-23T12:23:58;5.43;;;1.55;;
21270;SDS011;10795;50.796;3.860;2024-03-23T12:26:25;6.22;;;1.17;;
21270;SDS011;10795;50.796;3.860;2024-03-23T12:28:53;3.33;;;0.80;;
21270;SDS011;10795;50.796;3.860;2024-03-23T12:31:21;4.15;;;0.90;;
21270;SDS011;10795;50.796;3.860;2024-03-23T12:33:54;2.78;;;0.50;;
21270;SDS011;10795;50.796;3.860;2024-03-23T12:36:20;5.43;;;0.80;;
21270;SDS011;10795;50.796;3.860;2024-03-23T12:38:46;2.72;;;0.50;;
21270;SDS011;10795;50.796;3.860;2024-03-23T12:41:14;3.33;;;0.80;;
21270;SDS011;10795;50.796;3.860;2024-03-23T12:43:40;2.05;;;0.43;;
21270;SDS011;10795;50.796;3.860;2024-03-23T12:46:05;2.58;;;0.70;;
21270;SDS011;10795;50.796;3.860;2024-03-23T12:48:33;8.57;;;0.90;;
21270;SDS011;10795;50.796;3.860;2024-03-23T12:50:59;5.38;;;1.17;;
21270;SDS011;10795;50.796;3.860;2024-03-23T12:53:24;6.28;;;0.93;;
21270;SDS011;10795;50.796;3.860;2024-03-23T12:55:50;5.55;;;0.80;;
21270;SDS011;10795;50.796;3.860;2024-03-23T12:58:16;2.95;;;1.05;;
21270;SDS011;10795;50.796;3.860;2024-03-23T13:00:44;7.28;;;1.40;;
21270;SDS011;10795;50.796;3.860;2024-03-23T13:03:13;4.25;;;0.60;;
21270;SDS011;10795;50.796;3.860;2024-03-23T13:05:40;3.00;;;0.70;;
21270;SDS011;10795;50.796;3.860;2024-03-23T13:08:06;4.43;;;0.90;;
21270;SDS011;10795;50.796;3.860;2024-03-23T13:10:32;3.45;;;0.85;;
21270;SDS011;10795;50.796;3.860;2024-03-23T13:12:58;4.20;;;0.95;;
21270;SDS011;10795;50.796;3.860;2024-03-23T13:15:26;6.30;;;1.40;;
21270;SDS011;10795;50.796;3.860;2024-03-23T13:17:52;3.72;;;0.57;;
21270;SDS011;10795;50.796;3.860;2024-03-23T13:20:19;3.78;;;0.88;;
21270;SDS011;10795;50.796;3.860;2024-03-23T13:22:45;3.55;;;0.63;;
21270;SDS011;10795;50.796;3.860;2024-03-23T13:25:12;2.60;;;0.52;;
21270;SDS011;10795;50.796;3.860;2024-03-23T13:27:41;4.43;;;0.75;;
21270;SDS011;10795;50.796;3.860;2024-03-23T13:30:07;3.22;;;1.20;;
21270;SDS011;10795;50.796;3.860;2024-03-23T13:32:48;7.07;;;1.35;;
21270;SDS011;10795;50.796;3.860;2024-03-23T13:35:37;5.00;;;0.90;;
21270;SDS011;10795;50.796;3.860;2024-03-23T13:38:05;5.13;;;1.00;;
21270;SDS011;10795;50.796;3.860;2024-03-23T13:43:45;5.55;;;1.05;;
21270;SDS011;10795;50.796;3.860;2024-03-23T13:46:11;5.00;;;1.03;;
21270;SDS011;10795;50.796;3.860;2024-03-23T13:48:40;3.88;;;0.90;;
21270;SDS011;10795;50.796;3.860;2024-03-23T13:51:22;3.60;;;0.80;;
21270;SDS011;10795;50.796;3.860;2024-03-23T13:56:36;5.15;;;1.00;;
21270;SDS011;10795;50.796;3.860;2024-03-23T13:59:07;3.85;;;1.13;;
21270;SDS011;10795;50.796;3.860;2024-03-23T14:01:36;4.32;;;0.80;;
21270;SDS011;10795;50.796;3.860;2024-03-23T14:04:02;2.90;;;0.95;;
21270;SDS011;10795;50.796;3.860;2024-03-23T14:06:28;5.28;;;1.10;;
21270;SDS011;10795;50.796;3.860;2024-03-23T14:08:54;5.70;;;0.90;;
21270;SDS011;10795;50.796;3.860;2024-03-23T14:11:20;4.53;;;1.00;;
21270;SDS011;10795;50.796;3.860;2024-03-23T14:13:45;7.18;;;0.80;;
21270;SDS011;10795;50.796;3.860;2024-03-23T14:16:11;3.25;;;0.85;;
21270;SDS011;10795;50.796;3.860;2024-03-23T14:18:39;4.68;;;0.93;;
21270;SDS011;10795;50.796;3.860;2024-03-23T14:21:05;5.97;;;1.25;;
21270;SDS011;10795;50.796;3.860;2024-03-23T14:23:32;3.30;;;1.00;;
21270;SDS011;10795;50.796;3.860;2024-03-23T14:26:00;5.68;;;1.15;;
21270;SDS011;10795;50.796;3.860;2024-03-23T14:28:29;7.32;;;1.10;;
21270;SDS011;10795;50.796;3.860;2024-03-23T14:30:57;2.15;;;0.65;;
21270;SDS011;10795;50.796;3.860;2024-03-23T14:33:26;3.05;;;0.90;;
21270;SDS011;10795;50.796;3.860;2024-03-23T14:35:52;4.68;;;0.93;;
21270;SDS011;10795;50.796;3.860;2024-03-23T14:38:24;3.80;;;0.88;;
21270;SDS011;10795;50.796;3.860;2024-03-23T14:40:50;5.13;;;1.25;;
21270;SDS011;10795;50.796;3.860;2024-03-23T14:43:22;7.18;;;1.20;;
21270;SDS011;10795;50.796;3.860;2024-03-23T14:48:41;2.22;;;0.70;;
21270;SDS011;10795;50.796;3.860;2024-03-23T14:51:13;4.68;;;1.00;;
21270;SDS011;10795;50.796;3.860;2024-03-23T14:53:40;6.18;;;1.00;;
21270;SDS011;10795;50.796;3.860;2024-03-23T14:56:07;6.50;;;1.02;;
21270;SDS011;10795;50.796;3.860;2024-03-23T14:58:34;5.15;;;1.10;;
21270;SDS011;10795;50.796;3.860;2024-03-23T15:01:01;10.82;;;1.40;;
21270;SDS011;10795;50.796;3.860;2024-03-23T15:03:28;5.63;;;1.15;;
21270;SDS011;10795;50.796;3.860;2024-03-23T15:05:56;4.95;;;1.10;;
21270;SDS011;10795;50.796;3.860;2024-03-23T15:08:23;7.70;;;0.95;;
21270;SDS011;10795;50.796;3.860;2024-03-23T15:10:51;4.93;;;0.90;;
21270;SDS011;10795;50.796;3.860;2024-03-23T15:13:19;8.73;;;1.10;;
21270;SDS011;10795;50.796;3.860;2024-03-23T15:15:48;4.00;;;0.75;;
21270;SDS011;10795;50.796;3.860;2024-03-23T15:18:17;4.57;;;1.00;;
21270;SDS011;10795;50.796;3.860;2024-03-23T15:23:26;4.97;;;1.38;;
21270;SDS011;10795;50.796;3.860;2024-03-23T15:25:55;5.20;;;0.70;;
21270;SDS011;10795;50.796;3.860;2024-03-23T15:28:21;7.07;;;1.38;;
21270;SDS011;10795;50.796;3.860;2024-03-23T15:30:52;7.15;;;0.93;;
21270;SDS011;10795;50.796;3.860;2024-03-23T15:33:18;5.32;;;0.88;;
21270;SDS011;10795;50.796;3.860;2024-03-23T15:35:44;4.72;;;0.70;;
21270;SDS011;10795;50.796;3.860;2024-03-23T15:38:14;5.20;;;0.85;;
21270;SDS011;10795;50.796;3.860;2024-03-23T15:40:40;2.78;;;0.82;;
21270;SDS011;10795;50.796;3.860;2024-03-23T15:43:06;4.50;;;0.88;;
21270;SDS011;10795;50.796;3.860;2024-03-23T15:45:31;5.25;;;1.00;;
21270;SDS011;10795;50.796;3.860;2024-03-23T15:47:57;6.30;;;1.00;;
21270;SDS011;10795;50.796;3.860;2024-03-23T15:50:23;5.20;;;0.75;;
21270;SDS011;10795;50.796;3.860;2024-03-23T15:52:51;4.28;;;0.80;;
21270;SDS011;10795;50.796;3.860;2024-03-23T15:55:19;6.90;;;0.82;;
21270;SDS011;10795;50.796;3.860;2024-03-23T15:57:48;3.53;;;0.82;;
21270;SDS011;10795;50.796;3.860;2024-03-23T16:00:17;5.30;;;0.70;;
21270;SDS011;10795;50.796;3.860;2024-03-23T16:02:43;4.57;;;0.73;;
21270;SDS011;10795;50.796;3.860;2024-03-23T16:05:11;3.28;;;0.70;;
21270;SDS011;10795;50.796;3.860;2024-03-23T16:07:37;5.53;;;0.93;;